sensor_id;sensor_type;location;lat;lon;timestamp;P1;durP1;ratioP1;P2;durP2;ratioP2
69197;SDS011;56311;50.298;8.514;2023-11-19T00:00:00;2.6;;;1.0;;
69197;SDS011;56311;50.298;8.514;2023-11-19T00:02:00;2.6;;;1.0;;
69197;SDS011;56311;50.298;8.514;2023-11-19T00:04:00;2.8;;;1.2;;
69197;SDS011;56311;50.298;8.514;2023-11-19T00:06:01;3.1;;;1.4;;
69197;SDS011;56311;50.298;8.514;2023-11-19T00:08:00;2.5;;;1.0;;
69197;SDS011;56311;50.298;8.514;2023-11-19T00:10:00;3.4;;;1.3;;
69197;SDS011;56311;50.298;8.514;2023-11-19T00:12:00;2.7;;;1.1;;
69197;SDS011;56311;50.298;8.514;2023-11-19T00:14:00;2.9;;;1.3;;
69197;SDS011;56311;50.298;8.514;2023-11-19T00:16:00;2.8;;;1.1;;
69197;SDS011;56311;50.298;8.514;2023-11-19T00:18:00;2.7;;;1.0;;
69197;SDS011;56311;50.298;8.514;2023-11-19T00:20:00;4.4;;;1.3;;
69197;SDS011;56311;50.298;8.514;2023-11-19T00:22:00;2.4;;;1.0;;
69197;SDS011;56311;50.298;8.514;2023-11-19T00:24:00;2.8;;;1.1;;
69197;SDS011;56311;50.298;8.514;2023-11-19T00:26:00;3.1;;;1.2;;
69197;SDS011;56311;50.298;8.514;2023-11-19T00:28:00;2.8;;;1.2;;
69197;SDS011;56311;50.298;8.514;2023-11-19T00:30:00;2.9;;;1.2;;
69197;SDS011;56311;50.298;8.514;2023-11-19T00:32:00;2.4;;;1.0;;
69197;SDS011;56311;50.298;8.514;2023-11-19T00:34:00;2.8;;;1.1;;
69197;SDS011;56311;50.298;8.514;2023-11-19T00:36:00;2.5;;;1.0;;
69197;SDS011;56311;50.298;8.514;2023-11-19T00:38:00;2.6;;;1.1;;
69197;SDS011;56311;50.298;8.514;2023-11-19T00:40:00;2.2;;;0.9;;
69197;SDS011;56311;50.298;8.514;2023-11-19T00:42:00;2.2;;;0.8;;
69197;SDS011;56311;50.298;8.514;2023-11-19T00:44:00;3.4;;;0.9;;
69197;SDS011;56311;50.298;8.514;2023-11-19T00:46:00;3.5;;;0.8;;
69197;SDS011;56311;50.298;8.514;2023-11-19T00:48:00;2.3;;;0.8;;
69197;SDS011;56311;50.298;8.514;2023-11-19T00:50:00;2.4;;;0.8;;
69197;SDS011;56311;50.298;8.514;2023-11-19T00:52:00;2.3;;;0.8;;
69197;SDS011;56311;50.298;8.514;2023-11-19T00:54:00;2.5;;;0.7;;
69197;SDS011;56311;50.298;8.514;2023-11-19T00:56:00;2.6;;;0.8;;
69197;SDS011;56311;50.298;8.514;2023-11-19T00:58:00;2.3;;;0.6;;
69197;SDS011;56311;50.298;8.514;2023-11-19T01:00:00;2.7;;;0.6;;
69197;SDS011;56311;50.298;8.514;2023-11-19T01:02:00;2.0;;;0.5;;
69197;SDS011;56311;50.298;8.514;2023-11-19T01:04:00;1.4;;;0.5;;
69197;SDS011;56311;50.298;8.514;2023-11-19T01:06:00;1.4;;;0.5;;
69197;SDS011;56311;50.298;8.514;2023-11-19T01:08:00;3.0;;;0.6;;
69197;SDS011;56311;50.298;8.514;2023-11-19T01:10:00;1.8;;;0.5;;
69197;SDS011;56311;50.298;8.514;2023-11-19T01:12:00;1.9;;;0.6;;
69197;SDS011;56311;50.298;8.514;2023-11-19T01:14:00;1.9;;;0.6;;
69197;SDS011;56311;50.298;8.514;2023-11-19T01:16:00;2.1;;;0.6;;
69197;SDS011;56311;50.298;8.514;2023-11-19T01:18:00;1.6;;;0.5;;
69197;SDS011;56311;50.298;8.514;2023-11-19T01:20:00;2.6;;;0.5;;
69197;SDS011;56311;50.298;8.514;2023-11-19T01:22:00;1.8;;;0.5;;
69197;SDS011;56311;50.298;8.514;2023-11-19T01:24:00;1.6;;;0.4;;
69197;SDS011;56311;50.298;8.514;2023-11-19T01:26:00;1.6;;;0.5;;
69197;SDS011;56311;50.298;8.514;2023-11-19T01:28:00;1.2;;;0.4;;
69197;SDS011;56311;50.298;8.514;2023-11-19T01:30:00;3.0;;;0.4;;
69197;SDS011;56311;50.298;8.514;2023-11-19T01:32:00;1.4;;;0.4;;
69197;SDS011;56311;50.298;8.514;2023-11-19T01:34:00;2.2;;;0.4;;
69197;SDS011;56311;50.298;8.514;2023-11-19T01:36:00;1.4;;;0.4;;
69197;SDS011;56311;50.298;8.514;2023-11-19T01:38:00;1.5;;;0.4;;
69197;SDS011;56311;50.298;8.514;2023-11-19T01:40:00;2.2;;;0.5;;
69197;SDS011;56311;50.298;8.514;2023-11-19T01:42:00;2.2;;;0.4;;
69197;SDS011;56311;50.298;8.514;2023-11-19T01:44:00;1.9;;;0.5;;
69197;SDS011;56311;50.298;8.514;2023-11-19T01:46:00;1.7;;;0.5;;
69197;SDS011;56311;50.298;8.514;2023-11-19T01:48:01;1.4;;;0.5;;
69197;SDS011;56311;50.298;8.514;2023-11-19T01:50:01;2.1;;;0.6;;
69197;SDS011;56311;50.298;8.514;2023-11-19T01:52:00;2.9;;;0.5;;
69197;SDS011;56311;50.298;8.514;2023-11-19T01:54:00;2.4;;;0.5;;
69197;SDS011;56311;50.298;8.514;2023-11-19T01:56:00;2.2;;;0.6;;
69197;SDS011;56311;50.298;8.514;2023-11-19T01:58:00;1.9;;;0.6;;
69197;SDS011;56311;50.298;8.514;2023-11-19T02:00:00;2.7;;;0.7;;
69197;SDS011;56311;50.298;8.514;2023-11-19T02:02:00;1.8;;;0.5;;
69197;SDS011;56311;50.298;8.514;2023-11-19T02:04:00;1.7;;;0.5;;
69197;SDS011;56311;50.298;8.514;2023-11-19T02:06:00;1.7;;;0.5;;
69197;SDS011;56311;50.298;8.514;2023-11-19T02:08:00;1.4;;;0.5;;
69197;SDS011;56311;50.298;8.514;2023-11-19T02:10:00;1.5;;;0.4;;
69197;SDS011;56311;50.298;8.514;2023-11-19T02:12:00;1.5;;;0.5;;
69197;SDS011;56311;50.298;8.514;2023-11-19T02:14:00;1.7;;;0.3;;
69197;SDS011;56311;50.298;8.514;2023-11-19T02:16:00;1.4;;;0.4;;
69197;SDS011;56311;50.298;8.514;2023-11-19T02:20:00;2.0;;;0.5;;
69197;SDS011;56311;50.298;8.514;2023-11-19T02:22:00;1.9;;;0.5;;
69197;SDS011;56311;50.298;8.514;2023-11-19T02:24:01;1.6;;;0.5;;
69197;SDS011;56311;50.298;8.514;2023-11-19T02:26:02;1.9;;;0.6;;
69197;SDS011;56311;50.298;8.514;2023-11-19T02:28:00;1.8;;;0.6;;
69197;SDS011;56311;50.298;8.514;2023-11-19T02:30:00;1.8;;;0.6;;
69197;SDS011;56311;50.298;8.514;2023-11-19T02:32:00;1.6;;;0.6;;
69197;SDS011;56311;50.298;8.514;2023-11-19T02:34:00;1.7;;;0.6;;
69197;SDS011;56311;50.298;8.514;2023-11-19T02:36:00;2.7;;;0.7;;
69197;SDS011;56311;50.298;8.514;2023-11-19T02:38:00;1.8;;;0.7;;
69197;SDS011;56311;50.298;8.514;2023-11-19T02:40:00;2.7;;;0.7;;
69197;SDS011;56311;50.298;8.514;2023-11-19T02:42:00;2.2;;;0.8;;
69197;SDS011;56311;50.298;8.514;2023-11-19T02:44:00;2.4;;;0.8;;
69197;SDS011;56311;50.298;8.514;2023-11-19T02:46:00;2.1;;;0.7;;
69197;SDS011;56311;50.298;8.514;2023-11-19T02:48:00;2.1;;;0.7;;
69197;SDS011;56311;50.298;8.514;2023-11-19T02:50:00;1.9;;;0.5;;
69197;SDS011;56311;50.298;8.514;2023-11-19T02:52:00;1.9;;;0.5;;
69197;SDS011;56311;50.298;8.514;2023-11-19T02:54:00;1.6;;;0.5;;
69197;SDS011;56311;50.298;8.514;2023-11-19T02:56:00;2.3;;;0.7;;
69197;SDS011;56311;50.298;8.514;2023-11-19T02:58:00;2.5;;;0.5;;
69197;SDS011;56311;50.298;8.514;2023-11-19T03:00:00;1.2;;;0.5;;
69197;SDS011;56311;50.298;8.514;2023-11-19T03:02:00;2.0;;;0.3;;
69197;SDS011;56311;50.298;8.514;2023-11-19T03:04:00;1.3;;;0.4;;
69197;SDS011;56311;50.298;8.514;2023-11-19T03:06:00;1.3;;;0.4;;
69197;SDS011;56311;50.298;8.514;2023-11-19T03:08:00;1.1;;;0.3;;
69197;SDS011;56311;50.298;8.514;2023-11-19T03:10:00;1.7;;;0.3;;
69197;SDS011;56311;50.298;8.514;2023-11-19T03:12:00;1.2;;;0.3;;
69197;SDS011;56311;50.298;8.514;2023-11-19T03:14:00;1.2;;;0.3;;
69197;SDS011;56311;50.298;8.514;2023-11-19T03:16:00;0.7;;;0.2;;
69197;SDS011;56311;50.298;8.514;2023-11-19T03:18:00;0.9;;;0.3;;
69197;SDS011;56311;50.298;8.514;2023-11-19T03:20:00;2.0;;;0.3;;
69197;SDS011;56311;50.298;8.514;2023-11-19T03:22:01;1.9;;;0.5;;
69197;SDS011;56311;50.298;8.514;2023-11-19T03:24:00;1.4;;;0.5;;
69197;SDS011;56311;50.298;8.514;2023-11-19T03:26:00;3.0;;;0.5;;
69197;SDS011;56311;50.298;8.514;2023-11-19T03:28:00;2.0;;;0.5;;
69197;SDS011;56311;50.298;8.514;2023-11-19T03:30:00;1.8;;;0.6;;
69197;SDS011;56311;50.298;8.514;2023-11-19T03:32:00;1.9;;;0.6;;
69197;SDS011;56311;50.298;8.514;2023-11-19T03:34:00;2.0;;;0.5;;
69197;SDS011;56311;50.298;8.514;2023-11-19T03:36:00;2.2;;;0.5;;
69197;SDS011;56311;50.298;8.514;2023-11-19T03:38:00;1.6;;;0.5;;
69197;SDS011;56311;50.298;8.514;2023-11-19T03:40:00;2.1;;;0.6;;
69197;SDS011;56311;50.298;8.514;2023-11-19T03:42:00;1.8;;;0.5;;
69197;SDS011;56311;50.298;8.514;2023-11-19T03:44:00;1.9;;;0.6;;
69197;SDS011;56311;50.298;8.514;2023-11-19T03:46:00;2.4;;;0.7;;
69197;SDS011;56311;50.298;8.514;2023-11-19T03:48:00;1.5;;;0.6;;
69197;SDS011;56311;50.298;8.514;2023-11-19T03:50:00;2.1;;;0.5;;
69197;SDS011;56311;50.298;8.514;2023-11-19T03:52:00;2.4;;;0.5;;
69197;SDS011;56311;50.298;8.514;2023-11-19T03:54:01;1.8;;;0.5;;
69197;SDS011;56311;50.298;8.514;2023-11-19T03:56:00;1.4;;;0.4;;
69197;SDS011;56311;50.298;8.514;2023-11-19T03:58:00;1.3;;;0.4;;
69197;SDS011;56311;50.298;8.514;2023-11-19T04:00:00;1.6;;;0.4;;
69197;SDS011;56311;50.298;8.514;2023-11-19T04:02:00;0.9;;;0.3;;
69197;SDS011;56311;50.298;8.514;2023-11-19T04:04:00;1.3;;;0.3;;
69197;SDS011;56311;50.298;8.514;2023-11-19T04:06:00;1.0;;;0.3;;
69197;SDS011;56311;50.298;8.514;2023-11-19T04:08:00;0.7;;;0.2;;
69197;SDS011;56311;50.298;8.514;2023-11-19T04:10:00;0.8;;;0.2;;
69197;SDS011;56311;50.298;8.514;2023-11-19T04:12:00;0.9;;;0.1;;
69197;SDS011;56311;50.298;8.514;2023-11-19T04:14:00;1.3;;;0.4;;
69197;SDS011;56311;50.298;8.514;2023-11-19T04:16:00;1.1;;;0.2;;
69197;SDS011;56311;50.298;8.514;2023-11-19T04:18:00;1.0;;;0.4;;
69197;SDS011;56311;50.298;8.514;2023-11-19T04:20:00;1.3;;;0.3;;
69197;SDS011;56311;50.298;8.514;2023-11-19T04:22:01;1.4;;;0.2;;
69197;SDS011;56311;50.298;8.514;2023-11-19T04:24:00;1.1;;;0.3;;
69197;SDS011;56311;50.298;8.514;2023-11-19T04:26:01;1.1;;;0.3;;
69197;SDS011;56311;50.298;8.514;2023-11-19T04:28:00;1.1;;;0.3;;
69197;SDS011;56311;50.298;8.514;2023-11-19T04:30:00;1.4;;;0.4;;
69197;SDS011;56311;50.298;8.514;2023-11-19T04:32:00;1.0;;;0.3;;
69197;SDS011;56311;50.298;8.514;2023-11-19T04:34:00;2.7;;;0.4;;
69197;SDS011;56311;50.298;8.514;2023-11-19T04:36:00;2.0;;;0.3;;
69197;SDS011;56311;50.298;8.514;2023-11-19T04:38:00;1.2;;;0.3;;
69197;SDS011;56311;50.298;8.514;2023-11-19T04:40:00;1.3;;;0.3;;
69197;SDS011;56311;50.298;8.514;2023-11-19T04:42:00;1.0;;;0.3;;
69197;SDS011;56311;50.298;8.514;2023-11-19T04:44:00;0.9;;;0.3;;
69197;SDS011;56311;50.298;8.514;2023-11-19T04:46:03;0.9;;;0.3;;
69197;SDS011;56311;50.298;8.514;2023-11-19T04:48:00;0.8;;;0.2;;
69197;SDS011;56311;50.298;8.514;2023-11-19T04:50:00;1.1;;;0.3;;
69197;SDS011;56311;50.298;8.514;2023-11-19T04:52:00;1.1;;;0.3;;
69197;SDS011;56311;50.298;8.514;2023-11-19T04:54:00;2.8;;;0.3;;
69197;SDS011;56311;50.298;8.514;2023-11-19T04:56:00;0.8;;;0.2;;
69197;SDS011;56311;50.298;8.514;2023-11-19T04:58:00;0.8;;;0.2;;
69197;SDS011;56311;50.298;8.514;2023-11-19T05:00:00;2.0;;;0.3;;
69197;SDS011;56311;50.298;8.514;2023-11-19T05:02:00;1.3;;;0.3;;
69197;SDS011;56311;50.298;8.514;2023-11-19T05:04:00;1.1;;;0.3;;
69197;SDS011;56311;50.298;8.514;2023-11-19T05:06:00;0.9;;;0.2;;
69197;SDS011;56311;50.298;8.514;2023-11-19T05:08:00;1.0;;;0.2;;
69197;SDS011;56311;50.298;8.514;2023-11-19T05:10:00;1.2;;;0.3;;
69197;SDS011;56311;50.298;8.514;2023-11-19T05:12:00;0.8;;;0.2;;
69197;SDS011;56311;50.298;8.514;2023-11-19T05:14:02;0.9;;;0.2;;
69197;SDS011;56311;50.298;8.514;2023-11-19T05:16:00;0.9;;;0.2;;
69197;SDS011;56311;50.298;8.514;2023-11-19T05:18:00;0.9;;;0.2;;
69197;SDS011;56311;50.298;8.514;2023-11-19T05:20:00;0.7;;;0.2;;
69197;SDS011;56311;50.298;8.514;2023-11-19T05:22:00;0.8;;;0.2;;
69197;SDS011;56311;50.298;8.514;2023-11-19T05:24:00;1.0;;;0.3;;
69197;SDS011;56311;50.298;8.514;2023-11-19T05:26:00;0.9;;;0.2;;
69197;SDS011;56311;50.298;8.514;2023-11-19T05:28:00;1.0;;;0.2;;
69197;SDS011;56311;50.298;8.514;2023-11-19T05:30:00;1.1;;;0.2;;
69197;SDS011;56311;50.298;8.514;2023-11-19T05:32:00;1.2;;;0.2;;
69197;SDS011;56311;50.298;8.514;2023-11-19T05:34:00;1.8;;;0.3;;
69197;SDS011;56311;50.298;8.514;2023-11-19T05:36:00;1.1;;;0.3;;
69197;SDS011;56311;50.298;8.514;2023-11-19T05:38:00;1.7;;;0.2;;
69197;SDS011;56311;50.298;8.514;2023-11-19T05:40:00;1.5;;;0.3;;
69197;SDS011;56311;50.298;8.514;2023-11-19T05:42:00;1.9;;;0.3;;
69197;SDS011;56311;50.298;8.514;2023-11-19T05:44:00;0.9;;;0.3;;
69197;SDS011;56311;50.298;8.514;2023-11-19T05:46:00;1.5;;;0.2;;
69197;SDS011;56311;50.298;8.514;2023-11-19T05:48:00;0.9;;;0.2;;
69197;SDS011;56311;50.298;8.514;2023-11-19T05:50:00;0.9;;;0.2;;
69197;SDS011;56311;50.298;8.514;2023-11-19T05:52:00;1.2;;;0.3;;
69197;SDS011;56311;50.298;8.514;2023-11-19T05:54:00;1.5;;;0.2;;
69197;SDS011;56311;50.298;8.514;2023-11-19T05:56:00;1.1;;;0.2;;
69197;SDS011;56311;50.298;8.514;2023-11-19T05:58:00;0.7;;;0.2;;
69197;SDS011;56311;50.298;8.514;2023-11-19T06:00:00;1.7;;;0.3;;
69197;SDS011;56311;50.298;8.514;2023-11-19T06:02:00;0.8;;;0.2;;
69197;SDS011;56311;50.298;8.514;2023-11-19T06:04:00;1.2;;;0.3;;
69197;SDS011;56311;50.298;8.514;2023-11-19T06:06:00;2.1;;;0.3;;
69197;SDS011;56311;50.298;8.514;2023-11-19T06:08:00;1.8;;;0.3;;
69197;SDS011;56311;50.298;8.514;2023-11-19T06:10:00;2.9;;;0.4;;
69197;SDS011;56311;50.298;8.514;2023-11-19T06:12:00;3.2;;;0.4;;
69197;SDS011;56311;50.298;8.514;2023-11-19T06:14:00;1.8;;;0.4;;
69197;SDS011;56311;50.298;8.514;2023-11-19T06:16:00;2.0;;;0.4;;
69197;SDS011;56311;50.298;8.514;2023-11-19T06:18:00;2.0;;;0.5;;
69197;SDS011;56311;50.298;8.514;2023-11-19T06:20:00;1.8;;;0.5;;
69197;SDS011;56311;50.298;8.514;2023-11-19T06:22:00;2.3;;;0.4;;
69197;SDS011;56311;50.298;8.514;2023-11-19T06:24:00;1.8;;;0.4;;
69197;SDS011;56311;50.298;8.514;2023-11-19T06:26:00;1.7;;;0.4;;
69197;SDS011;56311;50.298;8.514;2023-11-19T06:28:00;2.4;;;0.3;;
69197;SDS011;56311;50.298;8.514;2023-11-19T06:30:00;2.6;;;0.4;;
69197;SDS011;56311;50.298;8.514;2023-11-19T06:32:00;2.7;;;0.4;;
69197;SDS011;56311;50.298;8.514;2023-11-19T06:34:00;3.4;;;0.6;;
69197;SDS011;56311;50.298;8.514;2023-11-19T06:36:00;2.0;;;0.5;;
69197;SDS011;56311;50.298;8.514;2023-11-19T06:38:00;1.8;;;0.4;;
69197;SDS011;56311;50.298;8.514;2023-11-19T06:40:00;1.8;;;0.4;;
69197;SDS011;56311;50.298;8.514;2023-11-19T06:42:00;2.2;;;0.5;;
69197;SDS011;56311;50.298;8.514;2023-11-19T06:44:00;3.1;;;0.6;;
69197;SDS011;56311;50.298;8.514;2023-11-19T06:46:00;2.2;;;0.6;;
69197;SDS011;56311;50.298;8.514;2023-11-19T06:48:00;2.5;;;0.5;;
69197;SDS011;56311;50.298;8.514;2023-11-19T06:50:00;2.6;;;0.6;;
69197;SDS011;56311;50.298;8.514;2023-11-19T06:52:00;1.9;;;0.5;;
69197;SDS011;56311;50.298;8.514;2023-11-19T06:54:00;2.6;;;0.6;;
69197;SDS011;56311;50.298;8.514;2023-11-19T06:56:00;2.6;;;0.7;;
69197;SDS011;56311;50.298;8.514;2023-11-19T06:58:00;3.7;;;0.6;;
69197;SDS011;56311;50.298;8.514;2023-11-19T07:00:00;2.6;;;0.5;;
69197;SDS011;56311;50.298;8.514;2023-11-19T07:02:00;2.7;;;0.6;;
69197;SDS011;56311;50.298;8.514;2023-11-19T07:04:00;2.1;;;0.6;;
69197;SDS011;56311;50.298;8.514;2023-11-19T07:06:00;3.5;;;0.7;;
69197;SDS011;56311;50.298;8.514;2023-11-19T07:08:00;5.6;;;0.7;;
69197;SDS011;56311;50.298;8.514;2023-11-19T07:10:00;3.1;;;0.7;;
69197;SDS011;56311;50.298;8.514;2023-11-19T07:12:00;3.2;;;0.6;;
69197;SDS011;56311;50.298;8.514;2023-11-19T07:14:00;4.6;;;1.0;;
69197;SDS011;56311;50.298;8.514;2023-11-19T07:16:00;3.8;;;0.8;;
69197;SDS011;56311;50.298;8.514;2023-11-19T07:18:00;3.9;;;0.7;;
69197;SDS011;56311;50.298;8.514;2023-11-19T07:20:00;2.9;;;0.8;;
69197;SDS011;56311;50.298;8.514;2023-11-19T07:22:00;3.4;;;0.7;;
69197;SDS011;56311;50.298;8.514;2023-11-19T07:24:01;2.9;;;0.7;;
69197;SDS011;56311;50.298;8.514;2023-11-19T07:26:00;4.1;;;0.8;;
69197;SDS011;56311;50.298;8.514;2023-11-19T07:28:00;4.6;;;0.9;;
69197;SDS011;56311;50.298;8.514;2023-11-19T07:30:00;5.7;;;0.9;;
69197;SDS011;56311;50.298;8.514;2023-11-19T07:32:00;3.3;;;0.6;;
69197;SDS011;56311;50.298;8.514;2023-11-19T07:34:00;4.5;;;0.7;;
69197;SDS011;56311;50.298;8.514;2023-11-19T07:36:00;3.9;;;0.6;;
69197;SDS011;56311;50.298;8.514;2023-11-19T07:38:00;4.6;;;0.9;;
69197;SDS011;56311;50.298;8.514;2023-11-19T07:40:00;4.9;;;1.1;;
69197;SDS011;56311;50.298;8.514;2023-11-19T07:42:00;4.5;;;0.7;;
69197;SDS011;56311;50.298;8.514;2023-11-19T07:44:00;4.0;;;0.9;;
69197;SDS011;56311;50.298;8.514;2023-11-19T07:46:00;4.9;;;0.8;;
69197;SDS011;56311;50.298;8.514;2023-11-19T07:48:00;5.2;;;0.9;;
69197;SDS011;56311;50.298;8.514;2023-11-19T07:50:00;4.8;;;1.1;;
69197;SDS011;56311;50.298;8.514;2023-11-19T07:52:00;7.7;;;0.9;;
69197;SDS011;56311;50.298;8.514;2023-11-19T07:54:00;6.5;;;0.9;;
69197;SDS011;56311;50.298;8.514;2023-11-19T07:56:00;4.6;;;1.1;;
69197;SDS011;56311;50.298;8.514;2023-11-19T07:58:00;6.9;;;1.2;;
69197;SDS011;56311;50.298;8.514;2023-11-19T08:00:00;6.5;;;1.3;;
69197;SDS011;56311;50.298;8.514;2023-11-19T08:02:00;6.3;;;1.1;;
69197;SDS011;56311;50.298;8.514;2023-11-19T08:04:00;5.6;;;1.3;;
69197;SDS011;56311;50.298;8.514;2023-11-19T08:06:00;8.7;;;1.2;;
69197;SDS011;56311;50.298;8.514;2023-11-19T08:08:00;6.4;;;1.3;;
69197;SDS011;56311;50.298;8.514;2023-11-19T08:10:00;7.3;;;1.5;;
69197;SDS011;56311;50.298;8.514;2023-11-19T08:12:00;6.7;;;1.2;;
69197;SDS011;56311;50.298;8.514;2023-11-19T08:14:00;10.6;;;1.7;;
69197;SDS011;56311;50.298;8.514;2023-11-19T08:16:00;6.6;;;1.3;;
69197;SDS011;56311;50.298;8.514;2023-11-19T08:18:00;8.6;;;1.6;;
69197;SDS011;56311;50.298;8.514;2023-11-19T08:20:00;9.0;;;1.5;;
69197;SDS011;56311;50.298;8.514;2023-11-19T08:22:00;8.2;;;1.1;;
69197;SDS011;56311;50.298;8.514;2023-11-19T08:24:00;6.8;;;1.1;;
69197;SDS011;56311;50.298;8.514;2023-11-19T08:26:00;6.0;;;1.4;;
69197;SDS011;56311;50.298;8.514;2023-11-19T08:28:00;8.9;;;1.3;;
69197;SDS011;56311;50.298;8.514;2023-11-19T08:30:00;6.6;;;1.4;;
69197;SDS011;56311;50.298;8.514;2023-11-19T08:32:00;10.0;;;1.6;;
69197;SDS011;56311;50.298;8.514;2023-11-19T08:34:00;6.4;;;1.2;;
69197;SDS011;56311;50.298;8.514;2023-11-19T08:36:00;6.9;;;1.2;;
69197;SDS011;56311;50.298;8.514;2023-11-19T08:38:00;7.7;;;1.7;;
69197;SDS011;56311;50.298;8.514;2023-11-19T08:40:00;7.7;;;1.6;;
69197;SDS011;56311;50.298;8.514;2023-11-19T08:42:00;6.7;;;1.2;;
69197;SDS011;56311;50.298;8.514;2023-11-19T08:44:00;8.6;;;1.6;;
69197;SDS011;56311;50.298;8.514;2023-11-19T08:46:00;7.9;;;1.3;;
69197;SDS011;56311;50.298;8.514;2023-11-19T08:48:00;10.7;;;1.6;;
69197;SDS011;56311;50.298;8.514;2023-11-19T08:50:00;9.4;;;2.3;;
69197;SDS011;56311;50.298;8.514;2023-11-19T08:52:00;9.7;;;1.8;;
69197;SDS011;56311;50.298;8.514;2023-11-19T08:54:00;10.4;;;1.8;;
69197;SDS011;56311;50.298;8.514;2023-11-19T08:56:00;12.5;;;2.0;;
69197;SDS011;56311;50.298;8.514;2023-11-19T08:58:00;10.2;;;1.8;;
69197;SDS011;56311;50.298;8.514;2023-11-19T09:00:00;8.8;;;1.7;;
69197;SDS011;56311;50.298;8.514;2023-11-19T09:02:00;9.0;;;1.3;;
69197;SDS011;56311;50.298;8.514;2023-11-19T09:04:00;10.3;;;1.3;;
69197;SDS011;56311;50.298;8.514;2023-11-19T09:06:00;9.2;;;1.4;;
69197;SDS011;56311;50.298;8.514;2023-11-19T09:08:00;10.7;;;1.8;;
69197;SDS011;56311;50.298;8.514;2023-11-19T09:10:00;8.2;;;1.4;;
69197;SDS011;56311;50.298;8.514;2023-11-19T09:12:00;10.6;;;2.0;;
69197;SDS011;56311;50.298;8.514;2023-11-19T09:14:00;10.3;;;1.7;;
69197;SDS011;56311;50.298;8.514;2023-11-19T09:16:00;9.5;;;1.6;;
69197;SDS011;56311;50.298;8.514;2023-11-19T09:18:00;10.9;;;1.6;;
69197;SDS011;56311;50.298;8.514;2023-11-19T09:20:00;9.8;;;1.5;;
69197;SDS011;56311;50.298;8.514;2023-11-19T09:22:00;8.6;;;1.5;;
69197;SDS011;56311;50.298;8.514;2023-11-19T09:24:00;9.2;;;1.6;;
69197;SDS011;56311;50.298;8.514;2023-11-19T09:26:00;8.5;;;1.7;;
69197;SDS011;56311;50.298;8.514;2023-11-19T09:28:00;11.9;;;1.9;;
69197;SDS011;56311;50.298;8.514;2023-11-19T09:30:00;10.7;;;1.7;;
69197;SDS011;56311;50.298;8.514;2023-11-19T09:32:00;9.9;;;1.4;;
69197;SDS011;56311;50.298;8.514;2023-11-19T09:34:00;9.4;;;1.4;;
69197;SDS011;56311;50.298;8.514;2023-11-19T09:36:00;9.7;;;1.9;;
69197;SDS011;56311;50.298;8.514;2023-11-19T09:38:00;12.4;;;2.1;;
69197;SDS011;56311;50.298;8.514;2023-11-19T09:40:00;10.0;;;1.7;;
69197;SDS011;56311;50.298;8.514;2023-11-19T09:42:00;10.0;;;1.7;;
69197;SDS011;56311;50.298;8.514;2023-11-19T09:44:00;11.0;;;1.7;;
69197;SDS011;56311;50.298;8.514;2023-11-19T09:46:01;9.8;;;2.3;;
69197;SDS011;56311;50.298;8.514;2023-11-19T09:48:00;10.2;;;1.7;;
69197;SDS011;56311;50.298;8.514;2023-11-19T09:50:00;10.2;;;1.8;;
69197;SDS011;56311;50.298;8.514;2023-11-19T09:52:00;11.7;;;1.7;;
69197;SDS011;56311;50.298;8.514;2023-11-19T09:54:00;10.2;;;1.4;;
69197;SDS011;56311;50.298;8.514;2023-11-19T09:56:00;12.3;;;2.0;;
69197;SDS011;56311;50.298;8.514;2023-11-19T09:58:00;10.5;;;2.0;;
69197;SDS011;56311;50.298;8.514;2023-11-19T10:00:01;11.5;;;2.0;;
69197;SDS011;56311;50.298;8.514;2023-11-19T10:02:00;9.9;;;1.7;;
69197;SDS011;56311;50.298;8.514;2023-11-19T10:04:00;12.0;;;2.1;;
69197;SDS011;56311;50.298;8.514;2023-11-19T10:06:00;11.6;;;2.3;;
69197;SDS011;56311;50.298;8.514;2023-11-19T10:08:01;15.4;;;2.1;;
69197;SDS011;56311;50.298;8.514;2023-11-19T10:10:00;13.6;;;2.3;;
69197;SDS011;56311;50.298;8.514;2023-11-19T10:12:00;9.8;;;1.9;;
69197;SDS011;56311;50.298;8.514;2023-11-19T10:14:00;11.7;;;2.2;;
69197;SDS011;56311;50.298;8.514;2023-11-19T10:16:03;11.6;;;2.2;;
69197;SDS011;56311;50.298;8.514;2023-11-19T10:18:00;12.8;;;2.1;;
69197;SDS011;56311;50.298;8.514;2023-11-19T10:20:00;12.9;;;2.1;;
69197;SDS011;56311;50.298;8.514;2023-11-19T10:22:02;9.6;;;1.9;;
69197;SDS011;56311;50.298;8.514;2023-11-19T10:24:00;11.8;;;2.2;;
69197;SDS011;56311;50.298;8.514;2023-11-19T10:26:02;9.0;;;1.8;;
69197;SDS011;56311;50.298;8.514;2023-11-19T10:28:00;12.1;;;2.2;;
69197;SDS011;56311;50.298;8.514;2023-11-19T10:30:00;12.8;;;2.1;;
69197;SDS011;56311;50.298;8.514;2023-11-19T10:32:00;11.5;;;2.3;;
69197;SDS011;56311;50.298;8.514;2023-11-19T10:34:00;11.5;;;2.2;;
69197;SDS011;56311;50.298;8.514;2023-11-19T10:36:00;13.0;;;2.3;;
69197;SDS011;56311;50.298;8.514;2023-11-19T10:38:00;8.2;;;1.9;;
69197;SDS011;56311;50.298;8.514;2023-11-19T10:40:01;11.9;;;2.2;;
69197;SDS011;56311;50.298;8.514;2023-11-19T10:42:05;12.6;;;1.7;;
69197;SDS011;56311;50.298;8.514;2023-11-19T10:44:00;12.3;;;2.2;;
69197;SDS011;56311;50.298;8.514;2023-11-19T10:46:08;11.7;;;2.2;;
69197;SDS011;56311;50.298;8.514;2023-11-19T10:48:00;15.0;;;1.9;;
69197;SDS011;56311;50.298;8.514;2023-11-19T10:50:00;9.2;;;2.1;;
69197;SDS011;56311;50.298;8.514;2023-11-19T10:52:00;13.4;;;2.3;;
69197;SDS011;56311;50.298;8.514;2023-11-19T10:54:02;14.5;;;2.5;;
69197;SDS011;56311;50.298;8.514;2023-11-19T10:56:00;12.9;;;2.4;;
69197;SDS011;56311;50.298;8.514;2023-11-19T10:58:01;13.1;;;2.3;;
69197;SDS011;56311;50.298;8.514;2023-11-19T11:00:01;12.8;;;2.3;;
69197;SDS011;56311;50.298;8.514;2023-11-19T11:02:01;15.8;;;2.3;;
69197;SDS011;56311;50.298;8.514;2023-11-19T11:04:00;11.9;;;2.3;;
69197;SDS011;56311;50.298;8.514;2023-11-19T11:06:00;12.6;;;2.3;;
69197;SDS011;56311;50.298;8.514;2023-11-19T11:08:00;11.9;;;2.1;;
69197;SDS011;56311;50.298;8.514;2023-11-19T11:10:00;13.4;;;2.4;;
69197;SDS011;56311;50.298;8.514;2023-11-19T11:12:00;13.1;;;2.4;;
69197;SDS011;56311;50.298;8.514;2023-11-19T11:14:00;11.8;;;2.4;;
69197;SDS011;56311;50.298;8.514;2023-11-19T11:16:00;12.7;;;2.6;;
69197;SDS011;56311;50.298;8.514;2023-11-19T11:18:01;12.7;;;2.8;;
69197;SDS011;56311;50.298;8.514;2023-11-19T11:20:00;12.1;;;2.2;;
69197;SDS011;56311;50.298;8.514;2023-11-19T11:22:00;14.5;;;2.6;;
69197;SDS011;56311;50.298;8.514;2023-11-19T11:24:05;13.8;;;2.2;;
69197;SDS011;56311;50.298;8.514;2023-11-19T11:26:04;14.9;;;2.7;;
69197;SDS011;56311;50.298;8.514;2023-11-19T11:28:04;16.3;;;3.1;;
69197;SDS011;56311;50.298;8.514;2023-11-19T11:30:03;14.2;;;2.3;;
69197;SDS011;56311;50.298;8.514;2023-11-19T11:32:08;14.9;;;2.6;;
69197;SDS011;56311;50.298;8.514;2023-11-19T11:34:04;12.4;;;2.4;;
69197;SDS011;56311;50.298;8.514;2023-11-19T11:36:03;14.0;;;2.2;;
69197;SDS011;56311;50.298;8.514;2023-11-19T11:38:01;11.1;;;2.3;;
69197;SDS011;56311;50.298;8.514;2023-11-19T11:40:00;15.0;;;2.5;;
69197;SDS011;56311;50.298;8.514;2023-11-19T11:44:00;16.3;;;2.6;;
69197;SDS011;56311;50.298;8.514;2023-11-19T11:46:00;13.9;;;2.2;;
69197;SDS011;56311;50.298;8.514;2023-11-19T11:48:06;13.3;;;2.2;;
69197;SDS011;56311;50.298;8.514;2023-11-19T11:50:04;13.5;;;2.4;;
69197;SDS011;56311;50.298;8.514;2023-11-19T11:52:01;33.5;;;20.1;;
69197;SDS011;56311;50.298;8.514;2023-11-19T11:54:00;13.7;;;3.5;;
69197;SDS011;56311;50.298;8.514;2023-11-19T11:56:00;14.8;;;2.4;;
69197;SDS011;56311;50.298;8.514;2023-11-19T11:58:00;15.3;;;2.8;;
69197;SDS011;56311;50.298;8.514;2023-11-19T12:00:01;13.9;;;2.5;;
69197;SDS011;56311;50.298;8.514;2023-11-19T12:02:00;21.1;;;3.2;;
69197;SDS011;56311;50.298;8.514;2023-11-19T12:04:00;12.2;;;2.3;;
69197;SDS011;56311;50.298;8.514;2023-11-19T12:06:00;14.5;;;2.7;;
69197;SDS011;56311;50.298;8.514;2023-11-19T12:08:01;14.0;;;2.5;;
69197;SDS011;56311;50.298;8.514;2023-11-19T12:10:05;13.6;;;2.9;;
69197;SDS011;56311;50.298;8.514;2023-11-19T12:14:00;15.2;;;2.5;;
69197;SDS011;56311;50.298;8.514;2023-11-19T12:16:07;17.3;;;2.8;;
69197;SDS011;56311;50.298;8.514;2023-11-19T12:18:00;13.4;;;2.1;;
69197;SDS011;56311;50.298;8.514;2023-11-19T12:20:00;16.6;;;2.5;;
69197;SDS011;56311;50.298;8.514;2023-11-19T12:22:00;12.9;;;2.5;;
69197;SDS011;56311;50.298;8.514;2023-11-19T12:24:00;13.5;;;2.5;;
69197;SDS011;56311;50.298;8.514;2023-11-19T12:26:00;14.7;;;2.2;;
69197;SDS011;56311;50.298;8.514;2023-11-19T12:28:00;15.2;;;2.4;;